createdAt,value
2019-04-05T00:00:35.832Z,1.37
2019-04-05T00:03:05.228Z,1.90
2019-04-05T00:05:34.647Z,1.67
2019-04-05T00:08:04.162Z,1.90
2019-04-05T00:10:33.514Z,1.40
2019-04-05T00:13:03.281Z,1.70
2019-04-05T00:15:32.687Z,1.37
2019-04-05T00:18:02.057Z,1.10
2019-04-05T00:20:31.475Z,1.20
2019-04-05T00:23:00.901Z,1.20
2019-04-05T00:25:30.370Z,1.60
2019-04-05T00:27:59.731Z,1.40
2019-04-05T00:30:29.182Z,1.30
2019-04-05T00:32:59.060Z,1.33
2019-04-05T00:35:28.403Z,1.27
2019-04-05T00:37:57.852Z,1.07
2019-04-05T00:40:27.263Z,1.40
2019-04-05T00:42:56.565Z,1.73
2019-04-05T00:45:28.305Z,1.40
2019-04-05T00:47:56.981Z,1.50
2019-04-05T00:50:26.393Z,1.50
2019-04-05T00:52:55.769Z,2.00
2019-04-05T00:55:25.127Z,1.83
2019-04-05T00:57:54.531Z,1.57
2019-04-05T01:00:23.916Z,1.70
2019-04-05T01:02:53.299Z,1.40
2019-04-05T01:05:22.728Z,1.47
2019-04-05T01:07:52.110Z,1.57
2019-04-05T01:10:21.522Z,1.53
2019-04-05T01:12:50.921Z,1.20
2019-04-05T01:15:20.315Z,1.47
2019-04-05T01:17:49.789Z,1.33
2019-04-05T01:20:19.201Z,1.50
2019-04-05T01:22:48.566Z,1.67
2019-04-05T01:25:17.973Z,1.70
2019-04-05T01:27:48.616Z,1.60
2019-04-05T01:30:18.059Z,1.57
2019-04-05T01:32:47.452Z,1.90
2019-04-05T01:35:18.057Z,2.10
2019-04-05T01:37:47.672Z,2.00
2019-04-05T01:40:17.073Z,1.80
2019-04-05T01:42:46.457Z,1.50
2019-04-05T01:45:15.830Z,2.07
2019-04-05T01:47:45.201Z,2.50
2019-04-05T01:50:15.561Z,1.93
2019-04-05T01:52:44.953Z,1.80
2019-04-05T01:55:14.250Z,2.23
2019-04-05T01:57:43.588Z,1.90
2019-04-05T02:00:12.915Z,2.10
2019-04-05T02:02:42.366Z,2.13
2019-04-05T02:05:11.746Z,1.87
2019-04-05T02:07:41.220Z,1.90
2019-04-05T02:10:10.600Z,1.43
2019-04-05T02:12:40.004Z,1.77
2019-04-05T02:15:09.315Z,1.50
2019-04-05T02:17:38.759Z,1.30
2019-04-05T02:20:08.133Z,1.50
2019-04-05T02:22:37.500Z,1.17
2019-04-05T02:25:06.883Z,1.53
2019-04-05T02:27:36.384Z,1.33
2019-04-05T02:30:05.942Z,1.33
2019-04-05T02:32:35.488Z,1.30
2019-04-05T02:35:05.661Z,1.00
2019-04-05T02:37:35.142Z,1.00
2019-04-05T02:40:09.009Z,1.30
2019-04-05T02:42:38.413Z,1.33
2019-04-05T02:45:07.780Z,1.00
2019-04-05T02:47:37.200Z,1.40
2019-04-05T02:50:06.584Z,1.33
2019-04-05T02:52:35.979Z,1.10
2019-04-05T02:55:05.304Z,1.20
2019-04-05T02:57:34.718Z,1.10
2019-04-05T03:00:04.473Z,0.97
2019-04-05T03:02:34.187Z,0.90
2019-04-05T03:05:03.631Z,1.00
2019-04-05T03:07:33.023Z,0.87
2019-04-05T03:10:02.377Z,1.00
2019-04-05T03:12:31.800Z,0.93
2019-04-05T03:15:01.164Z,1.00
2019-04-05T03:17:30.745Z,1.00
2019-04-05T03:20:00.113Z,0.97
2019-04-05T03:22:29.450Z,1.00
2019-04-05T03:24:58.847Z,1.10
2019-04-05T03:27:28.626Z,1.00
2019-04-05T03:29:58.001Z,1.00
2019-04-05T03:32:27.378Z,1.17
2019-04-05T03:34:56.730Z,0.93
2019-04-05T03:37:26.185Z,0.90
2019-04-05T03:39:55.591Z,1.00
2019-04-05T03:42:25.979Z,0.97
2019-04-05T03:44:55.380Z,1.10
2019-04-05T03:47:24.762Z,1.30
2019-04-05T03:49:54.123Z,0.90
2019-04-05T03:52:23.618Z,1.20
2019-04-05T03:54:53.015Z,1.13
2019-04-05T03:57:22.679Z,1.20
2019-04-05T03:59:52.052Z,1.17
2019-04-05T04:02:23.513Z,1.27
2019-04-05T04:04:52.647Z,1.20
2019-04-05T04:07:22.065Z,0.90
2019-04-05T04:09:51.476Z,1.33
2019-04-05T04:12:20.892Z,1.50
2019-04-05T04:14:50.262Z,1.43
2019-04-05T04:17:19.711Z,1.10
2019-04-05T04:19:49.081Z,1.40
2019-04-05T04:22:20.136Z,1.10
2019-04-05T04:24:49.517Z,1.30
2019-04-05T04:27:18.967Z,1.50
2019-04-05T04:29:48.390Z,1.20
2019-04-05T04:32:17.794Z,1.23
2019-04-05T04:34:47.258Z,1.23
2019-04-05T04:37:16.563Z,1.57
2019-04-05T04:39:46.167Z,1.50
2019-04-05T04:42:15.546Z,1.00
2019-04-05T04:44:44.995Z,1.60
2019-04-05T04:47:25.771Z,1.90
2019-04-05T04:49:45.410Z,1.60
2019-04-05T04:52:14.779Z,1.10
2019-04-05T04:54:44.140Z,1.40
2019-04-05T04:57:13.561Z,1.20
2019-04-05T04:59:42.989Z,1.40
2019-04-05T05:02:13.441Z,1.20
2019-04-05T05:04:42.867Z,1.57
2019-04-05T05:07:12.242Z,1.80
2019-04-05T05:09:41.655Z,1.63
2019-04-05T05:12:11.052Z,1.70
2019-04-05T05:14:40.465Z,1.60
2019-04-05T05:17:09.849Z,2.00
2019-04-05T05:19:39.347Z,1.60
2019-04-05T05:22:08.702Z,1.87
2019-04-05T05:24:38.050Z,1.27
2019-04-05T05:27:07.425Z,1.50
2019-04-05T05:29:36.836Z,1.43
2019-04-05T05:32:06.214Z,1.30
2019-04-05T05:34:35.613Z,2.40
2019-04-05T05:37:04.918Z,3.03
2019-04-05T05:39:34.347Z,3.80
2019-04-05T05:42:03.730Z,2.03
2019-04-05T05:44:33.115Z,1.93
2019-04-05T05:47:02.401Z,1.60
2019-04-05T05:49:32.800Z,1.43
2019-04-05T05:52:02.130Z,1.70
2019-04-05T05:54:31.518Z,1.80
2019-04-05T05:57:00.801Z,1.90
2019-04-05T05:59:30.786Z,1.50
2019-04-05T06:02:00.363Z,1.83
2019-04-05T06:04:29.832Z,1.70
2019-04-05T06:06:59.194Z,2.27
2019-04-05T06:09:28.654Z,3.33
2019-04-05T06:11:58.047Z,2.30
2019-04-05T06:14:27.647Z,2.00
2019-04-05T06:16:57.030Z,1.77
2019-04-05T06:19:26.470Z,1.70
2019-04-05T06:21:55.854Z,1.80
2019-04-05T06:24:25.276Z,1.77
2019-04-05T06:26:54.664Z,2.20
2019-04-05T06:29:24.077Z,3.27
2019-04-05T06:31:53.475Z,2.20
2019-04-05T06:34:22.885Z,2.17
2019-04-05T06:36:52.183Z,2.67
2019-04-05T06:39:21.519Z,2.23
2019-04-05T06:41:50.865Z,2.60
2019-04-05T06:44:20.196Z,2.57
2019-04-05T06:46:49.584Z,3.03
2019-04-05T06:49:18.914Z,3.20
2019-04-05T06:51:48.273Z,2.80
2019-04-05T06:54:17.612Z,2.70
2019-04-05T06:56:46.939Z,3.30
2019-04-05T06:59:19.207Z,3.70
2019-04-05T07:01:47.348Z,4.27
2019-04-05T07:04:16.768Z,4.60
2019-04-05T07:06:46.136Z,5.30
2019-04-05T07:09:15.542Z,3.40
2019-04-05T07:11:44.841Z,3.70
2019-04-05T07:14:14.305Z,3.57
2019-04-05T07:16:43.754Z,3.70
2019-04-05T07:19:13.149Z,2.87
2019-04-05T07:21:44.890Z,3.30
2019-04-05T07:24:14.281Z,3.00
2019-04-05T07:26:43.588Z,3.17
2019-04-05T07:29:12.930Z,2.80
2019-04-05T07:31:42.317Z,2.50
2019-04-05T07:34:11.656Z,2.50
2019-04-05T07:36:41.044Z,3.03
2019-04-05T07:39:10.534Z,2.33
2019-04-05T07:41:39.915Z,2.97
2019-04-05T07:44:09.325Z,2.57
2019-04-05T07:46:38.656Z,2.60
2019-04-05T07:49:08.203Z,2.07
2019-04-05T07:51:37.508Z,2.53
2019-04-05T07:54:06.821Z,2.67
2019-04-05T07:56:36.144Z,3.03
2019-04-05T07:59:05.528Z,2.93
2019-04-05T08:01:34.818Z,3.43
2019-04-05T08:04:04.157Z,4.10
2019-04-05T08:06:33.719Z,4.07
2019-04-05T08:09:07.326Z,3.83
2019-04-05T08:11:36.624Z,3.70
2019-04-05T08:14:05.930Z,3.53
2019-04-05T08:16:35.525Z,3.30
2019-04-05T08:19:04.838Z,3.75
2019-04-05T08:21:34.260Z,3.60
2019-04-05T08:24:03.626Z,3.90
2019-04-05T08:26:32.964Z,4.27
2019-04-05T08:29:02.277Z,4.30
2019-04-05T08:31:31.696Z,4.20
2019-04-05T08:34:01.079Z,4.13
2019-04-05T08:36:32.753Z,5.20
2019-04-05T08:39:01.647Z,4.60
2019-04-05T08:41:33.125Z,4.28
2019-04-05T08:44:02.878Z,4.33
2019-04-05T08:46:32.212Z,4.53
2019-04-05T08:49:10.551Z,5.90
2019-04-05T08:51:32.525Z,4.78
2019-04-05T08:54:02.162Z,4.30
2019-04-05T08:56:41.200Z,4.90
2019-04-05T08:59:12.149Z,4.43
2019-04-05T09:01:41.553Z,4.20
2019-04-05T09:04:10.944Z,4.10
2019-04-05T09:06:40.432Z,3.90
2019-04-05T09:09:09.796Z,5.00
2019-04-05T09:11:39.220Z,4.43
2019-04-05T09:14:08.578Z,4.42
2019-04-05T09:16:37.990Z,3.57
2019-04-05T09:19:07.388Z,3.30
2019-04-05T09:21:40.430Z,3.80
2019-04-05T09:24:07.821Z,3.10
2019-04-05T09:26:37.245Z,3.47
2019-04-05T09:29:09.097Z,3.60
2019-04-05T09:31:37.774Z,3.80
2019-04-05T09:34:07.105Z,3.23
2019-04-05T09:36:36.491Z,2.90
2019-04-05T09:39:08.070Z,3.03
2019-04-05T09:41:38.204Z,2.80
2019-04-05T09:44:07.586Z,4.10
2019-04-05T09:46:46.475Z,4.40
2019-04-05T09:49:08.421Z,2.97
2019-04-05T09:51:37.918Z,2.97
2019-04-05T09:54:07.425Z,2.80
2019-04-05T09:56:36.974Z,3.20
2019-04-05T09:59:06.576Z,3.83
2019-04-05T10:01:36.185Z,4.30
2019-04-05T10:04:05.708Z,4.97
2019-04-05T10:06:35.083Z,3.00
2019-04-05T10:09:06.329Z,3.47
2019-04-05T10:11:35.747Z,3.47
2019-04-05T10:14:05.141Z,3.10
2019-04-05T10:16:34.939Z,3.10
2019-04-05T10:19:04.566Z,4.07
2019-04-05T10:21:34.086Z,3.67
2019-04-05T10:24:03.467Z,3.47
2019-04-05T10:26:32.968Z,4.63
2019-04-05T10:29:02.338Z,3.13
2019-04-05T10:31:31.751Z,3.40
2019-04-05T10:34:01.131Z,3.33
2019-04-05T10:36:30.602Z,3.30
2019-04-05T10:38:59.984Z,3.43
2019-04-05T10:41:29.332Z,3.20
2019-04-05T10:43:58.691Z,4.10
2019-04-05T10:46:28.020Z,4.35
2019-04-05T10:48:58.407Z,3.90
2019-04-05T10:51:28.968Z,3.40
2019-04-05T10:53:58.277Z,3.60
2019-04-05T10:56:27.672Z,4.30
2019-04-05T10:58:57.034Z,3.90
2019-04-05T11:01:26.414Z,4.27
2019-04-05T11:03:55.902Z,3.97
2019-04-05T11:06:25.488Z,4.63
2019-04-05T11:08:55.859Z,4.07
2019-04-05T11:11:25.945Z,4.60
2019-04-05T11:13:55.323Z,4.07
2019-04-05T11:16:24.897Z,4.15
2019-04-05T11:18:54.309Z,4.53
2019-04-05T11:21:23.783Z,3.93
2019-04-05T11:23:53.530Z,3.93
2019-04-05T11:26:24.319Z,4.47
2019-04-05T11:28:53.718Z,4.70
2019-04-05T11:31:24.228Z,5.50
2019-04-05T11:33:53.622Z,5.67
2019-04-05T11:36:23.241Z,5.17
2019-04-05T11:38:52.616Z,6.97
2019-04-05T11:41:22.010Z,6.10
2019-04-05T11:43:51.393Z,6.37
2019-04-05T11:46:20.811Z,5.90
2019-04-05T11:48:50.188Z,5.93
2019-04-05T11:51:19.689Z,5.87
2019-04-05T11:53:49.076Z,5.23
2019-04-05T11:56:19.945Z,5.37
2019-04-05T11:58:50.148Z,4.03
2019-04-05T12:01:23.611Z,4.58
2019-04-05T12:03:53.441Z,4.60
2019-04-05T12:06:22.929Z,5.20
2019-04-05T12:08:52.301Z,6.30
2019-04-05T12:11:21.629Z,8.93
2019-04-05T12:13:51.148Z,11.30
2019-04-05T12:16:20.554Z,6.67
2019-04-05T12:18:49.963Z,6.40
2019-04-05T12:21:20.933Z,6.10
2019-04-05T12:23:50.385Z,6.80
2019-04-05T12:26:19.792Z,5.20
2019-04-05T12:28:50.355Z,5.73
2019-04-05T12:31:20.242Z,5.50
2019-04-05T12:33:52.237Z,5.20
2019-04-05T12:36:22.358Z,4.57
2019-04-05T12:38:54.278Z,4.53
2019-04-05T12:41:22.888Z,5.27
2019-04-05T12:43:52.784Z,4.73
2019-04-05T12:46:22.152Z,4.67
2019-04-05T12:48:51.643Z,4.70
2019-04-05T12:51:21.262Z,5.13
2019-04-05T12:53:50.780Z,5.60
2019-04-05T12:56:20.172Z,5.07
2019-04-05T12:58:49.500Z,5.60
2019-04-05T13:01:18.807Z,5.67
2019-04-05T13:03:51.153Z,5.70
2019-04-05T13:06:19.822Z,5.60
2019-04-05T13:08:51.493Z,5.37
2019-04-05T13:11:20.949Z,5.63
2019-04-05T13:13:50.353Z,5.90
2019-04-05T13:16:19.636Z,6.20
2019-04-05T13:18:48.951Z,5.57
2019-04-05T13:21:18.279Z,6.07
2019-04-05T13:23:47.698Z,5.67
2019-04-05T13:26:17.062Z,6.00
2019-04-05T13:28:48.446Z,5.80
2019-04-05T13:31:18.820Z,6.23
2019-04-05T13:33:48.486Z,5.30
2019-04-05T13:36:17.806Z,4.83
2019-04-05T13:38:54.595Z,5.70
2019-04-05T13:41:19.150Z,7.50
2019-04-05T13:43:48.735Z,5.70
2019-04-05T13:46:22.733Z,6.63
2019-04-05T13:48:49.226Z,6.30
2019-04-05T13:51:27.850Z,6.23
2019-04-05T13:53:49.645Z,6.20
2019-04-05T13:56:19.016Z,6.10
2019-04-05T13:58:48.436Z,5.30
2019-04-05T14:01:20.290Z,5.77
2019-04-05T14:03:50.337Z,4.97
2019-04-05T14:06:19.796Z,5.33
2019-04-05T14:08:49.142Z,5.23
2019-04-05T14:11:18.423Z,5.43
2019-04-05T14:13:47.730Z,5.80
2019-04-05T14:16:17.023Z,5.90
2019-04-05T14:18:49.508Z,5.67
2019-04-05T14:21:20.639Z,5.37
2019-04-05T14:23:48.352Z,5.40
2019-04-05T14:26:17.671Z,4.83
2019-04-05T14:28:47.096Z,5.20
2019-04-05T14:31:16.494Z,5.30
2019-04-05T14:33:45.910Z,5.50
2019-04-05T14:36:15.302Z,5.53
2019-04-05T14:38:44.719Z,5.73
2019-04-05T14:41:14.019Z,5.10
2019-04-05T14:43:44.911Z,5.83
2019-04-05T14:46:14.471Z,5.23
2019-04-05T14:48:43.862Z,5.00
2019-04-05T14:51:13.287Z,5.50
2019-04-05T14:53:42.768Z,5.40
2019-04-05T14:56:12.881Z,5.00
2019-04-05T14:58:42.299Z,4.87
2019-04-05T15:01:12.299Z,4.97
2019-04-05T15:03:41.822Z,4.73
2019-04-05T15:06:11.219Z,4.77
2019-04-05T15:08:40.743Z,5.13
2019-04-05T15:11:11.268Z,4.83
2019-04-05T15:13:40.932Z,4.93
2019-04-05T15:16:11.681Z,4.10
2019-04-05T15:18:41.363Z,4.27
2019-04-05T15:21:10.771Z,4.63
2019-04-05T15:23:41.355Z,4.20
2019-04-05T15:26:10.960Z,4.37
2019-04-05T15:28:40.351Z,4.40
2019-04-05T15:31:09.665Z,4.97
2019-04-05T15:33:39.000Z,4.67
2019-04-05T15:36:08.368Z,4.30
2019-04-05T15:38:37.729Z,4.30
2019-04-05T15:41:07.054Z,3.80
2019-04-05T15:43:36.392Z,4.13
2019-04-05T15:46:05.770Z,3.87
2019-04-05T15:48:35.155Z,4.87
2019-04-05T15:51:04.540Z,3.77
2019-04-05T15:53:33.960Z,3.70
2019-04-05T15:56:04.335Z,4.00
2019-04-05T15:58:34.660Z,3.93
2019-04-05T16:01:05.582Z,3.50
2019-04-05T16:03:36.951Z,3.77
2019-04-05T16:06:06.079Z,4.53
2019-04-05T16:08:35.568Z,4.47
2019-04-05T16:11:06.199Z,4.97
2019-04-05T16:13:35.608Z,7.77
2019-04-05T16:16:05.007Z,4.90
2019-04-05T16:18:34.477Z,3.83
2019-04-05T16:21:03.794Z,4.40
2019-04-05T16:23:33.412Z,5.05
2019-04-05T16:26:02.956Z,4.40
2019-04-05T16:28:33.459Z,3.80
2019-04-05T16:31:02.831Z,4.37
2019-04-05T16:33:32.316Z,4.47
2019-04-05T16:36:01.621Z,2.37
2019-04-05T16:38:31.121Z,3.37
2019-04-05T16:41:00.491Z,2.30
2019-04-05T16:43:29.844Z,2.40
2019-04-05T16:45:59.538Z,2.40
2019-04-05T16:48:28.904Z,2.43
2019-04-05T16:50:59.267Z,2.40
2019-04-05T16:53:28.870Z,2.50
2019-04-05T16:55:58.330Z,2.40
2019-04-05T16:58:27.699Z,2.30
2019-04-05T17:00:57.097Z,3.57
2019-04-05T17:03:26.526Z,2.10
2019-04-05T17:05:56.099Z,3.50
2019-04-05T17:08:25.642Z,3.10
2019-04-05T17:10:55.136Z,2.30
2019-04-05T17:13:24.536Z,2.83
2019-04-05T17:15:53.955Z,1.87
2019-04-05T17:18:23.437Z,2.63
2019-04-05T17:20:52.842Z,2.40
2019-04-05T17:23:22.311Z,2.37
2019-04-05T17:25:51.771Z,3.50
2019-04-05T17:28:21.163Z,2.30
2019-04-05T17:30:50.651Z,2.50
2019-04-05T17:33:20.016Z,2.17
2019-04-05T17:35:49.430Z,2.40
2019-04-05T17:38:18.827Z,2.03
2019-04-05T17:40:48.232Z,2.47
2019-04-05T17:43:17.596Z,2.47
2019-04-05T17:45:47.053Z,2.53
2019-04-05T17:48:16.339Z,2.47
2019-04-05T17:50:45.759Z,2.30
2019-04-05T17:53:15.148Z,2.50
2019-04-05T17:55:44.552Z,2.60
2019-04-05T17:58:13.929Z,2.10
2019-04-05T18:00:43.904Z,2.50
2019-04-05T18:03:14.552Z,2.90
2019-04-05T18:05:43.962Z,3.40
2019-04-05T18:08:13.406Z,3.10
2019-04-05T18:10:42.827Z,2.53
2019-04-05T18:13:12.210Z,2.90
2019-04-05T18:15:51.909Z,2.83
2019-04-05T18:18:12.661Z,3.73
2019-04-05T18:20:42.136Z,3.57
2019-04-05T18:23:23.879Z,2.90
2019-04-05T18:25:43.797Z,3.47
2019-04-05T18:28:13.181Z,2.90
2019-04-05T18:30:42.535Z,3.07
2019-04-05T18:33:11.983Z,3.67
2019-04-05T18:35:41.387Z,2.70
2019-04-05T18:38:10.758Z,3.30
2019-04-05T18:40:40.607Z,2.93
2019-04-05T18:43:10.160Z,3.03
2019-04-05T18:45:39.565Z,3.33
2019-04-05T18:48:08.872Z,2.90
2019-04-05T18:50:38.334Z,3.07
2019-04-05T18:53:07.791Z,3.10
2019-04-05T18:55:37.211Z,3.03
2019-04-05T18:58:06.590Z,2.50
2019-04-05T19:00:36.098Z,2.80
2019-04-05T19:03:05.549Z,3.20
2019-04-05T19:05:35.337Z,3.15
2019-04-05T19:08:04.876Z,3.03
2019-04-05T19:10:37.409Z,3.80
2019-04-05T19:13:05.688Z,3.37
2019-04-05T19:15:35.163Z,3.50
2019-04-05T19:18:04.605Z,3.37
2019-04-05T19:20:36.798Z,3.40
2019-04-05T19:23:05.362Z,3.30
2019-04-05T19:25:34.814Z,3.30
2019-04-05T19:28:04.316Z,3.80
2019-04-05T19:50:42.803Z,3.30
2019-04-05T19:53:12.212Z,3.58
2019-04-05T19:55:41.835Z,3.40
2019-04-05T19:58:11.248Z,3.33
2019-04-05T20:00:40.761Z,2.90
2019-04-05T20:03:10.398Z,3.47
2019-04-05T20:05:39.974Z,3.90
2019-04-05T20:08:09.489Z,3.80
2019-04-05T20:10:38.994Z,3.30
2019-04-05T20:13:08.449Z,3.40
2019-04-05T20:15:37.875Z,2.93
2019-04-05T20:18:07.579Z,2.80
2019-04-05T20:20:37.145Z,3.35
2019-04-05T20:23:06.754Z,3.00
2019-04-05T20:25:36.142Z,2.90
2019-04-05T20:28:05.513Z,3.35
2019-04-05T20:30:34.869Z,3.00
2019-04-05T20:33:04.262Z,3.10
2019-04-05T20:35:33.727Z,3.03
2019-04-05T20:38:03.333Z,3.30
2019-04-05T20:40:32.754Z,2.87
2019-04-05T20:43:02.160Z,2.67
2019-04-05T20:45:31.567Z,3.27
2019-04-05T20:48:01.061Z,3.33
2019-04-05T20:50:30.500Z,3.43
2019-04-05T20:52:59.834Z,3.17
2019-04-05T20:55:29.246Z,2.97
2019-04-05T20:57:58.748Z,2.63
2019-04-05T21:00:28.165Z,3.20
2019-04-05T21:02:57.572Z,3.13
2019-04-05T21:05:27.100Z,3.13
2019-04-05T21:07:56.499Z,3.07
2019-04-05T21:10:28.107Z,3.60
2019-04-05T21:12:57.595Z,3.20
2019-04-05T21:15:27.138Z,3.00
2019-04-05T21:17:56.608Z,2.80
2019-04-05T21:20:26.026Z,3.00
2019-04-05T21:22:55.451Z,3.80
2019-04-05T21:25:24.878Z,3.60
2019-04-05T21:27:54.313Z,3.80
2019-04-05T21:30:23.740Z,4.90
2019-04-05T21:32:54.414Z,5.00
2019-04-05T21:35:23.857Z,6.23
2019-04-05T21:37:54.477Z,5.20
2019-04-05T21:40:23.944Z,4.53
2019-04-05T21:42:53.356Z,4.30
2019-04-05T21:45:22.777Z,3.70
2019-04-05T21:47:52.266Z,3.30
2019-04-05T21:50:21.667Z,3.57
2019-04-05T21:52:51.066Z,3.10
2019-04-05T21:55:20.492Z,4.43
2019-04-05T21:57:49.926Z,4.70
2019-04-05T22:00:26.411Z,5.03
2019-04-05T22:02:57.479Z,5.00
2019-04-05T22:05:26.837Z,5.00
2019-04-05T22:07:56.253Z,4.30
2019-04-05T22:10:25.606Z,4.33
2019-04-05T22:12:54.915Z,4.83
2019-04-05T22:15:24.234Z,4.00
2019-04-05T22:17:53.654Z,4.77
2019-04-05T22:20:23.009Z,4.50
2019-04-05T22:22:52.349Z,4.13
2019-04-05T22:25:21.749Z,3.73
2019-04-05T22:27:51.148Z,3.97
2019-04-05T22:30:20.430Z,4.40
2019-04-05T22:32:49.766Z,4.97
2019-04-05T22:35:19.109Z,4.40
2019-04-05T22:37:48.513Z,4.47
2019-04-05T22:40:17.798Z,4.40
2019-04-05T22:42:47.114Z,4.47
2019-04-05T22:45:16.440Z,4.43
2019-04-05T22:47:45.803Z,4.30
2019-04-05T22:50:15.137Z,4.47
2019-04-05T22:52:44.470Z,4.40
2019-04-05T22:55:13.791Z,4.23
2019-04-05T22:57:43.265Z,3.57
2019-04-05T23:00:12.736Z,3.10
2019-04-05T23:02:43.504Z,3.07
2019-04-05T23:05:12.818Z,3.87
2019-04-05T23:07:42.157Z,3.77
2019-04-05T23:10:11.529Z,3.73
2019-04-05T23:12:40.862Z,3.50
2019-04-05T23:15:10.271Z,4.00
2019-04-05T23:17:39.658Z,2.90
2019-04-05T23:20:08.965Z,3.60
2019-04-05T23:22:38.317Z,3.60
2019-04-05T23:25:07.691Z,2.50
2019-04-05T23:27:37.109Z,3.07
2019-04-05T23:30:08.027Z,3.17
2019-04-05T23:32:37.430Z,3.23
2019-04-05T23:35:06.714Z,3.03
2019-04-05T23:37:36.064Z,3.33
2019-04-05T23:40:05.605Z,3.17
2019-04-05T23:42:35.019Z,2.93
2019-04-05T23:45:05.301Z,3.10
2019-04-05T23:47:34.676Z,2.90
2019-04-05T23:50:04.721Z,2.93
2019-04-05T23:52:34.147Z,3.17
2019-04-05T23:55:03.913Z,3.30
2019-04-05T23:57:33.246Z,3.90
